^^
Grace C. Lehan Memorial Weather Station Historical Data
Daily Summary for August 15, 2021 Units:  English    Metric   Both
Daily Weekly Monthly Yearly
  High: Low: Average:
Temperature: 46.3 °F 28.8 °F 38.4 °F
Dew Point: 41.8 °F 20 °F 30 °F
Humidity: 94% 51% 73%
Wind Speed: 2mph 0mph 0.1mph
Wind Gust: 5mph - -
Wind- - WNW
Pressure: 30.67 in 30.24 in -
Precipitation: 0.12 in    
 
 
Tabular Data for August 15, 2021
Time Temperature Dew Point Pressure Wind Wind Speed Wind Gust Humidity Rainfall Rate (Hourly) solar
00:04 36.2 °F 21.4 °F 30.64 in Calm     54.5% 0.00 in 0 W/m2
00:09 36.1 °F 21.6 °F 30.64 in Calm     55.2% 0.00 in 0 W/m2
00:14 35.9 °F 21.7 °F 30.64 in Calm     55.8% 0.00 in 0 W/m2
00:19 35.8 °F 21.5 °F 30.64 in Calm     55.6% 0.00 in 0 W/m2
00:24 35.6 °F 21.5 °F 30.64 in Calm     56% 0.00 in 0 W/m2
00:29 35.5 °F 21.4 °F 30.63 in Calm   2 mph 56.1% 0.00 in 0 W/m2
00:34 35.4 °F 21.7 °F 30.64 in Calm   2 mph 57% 0.00 in 0 W/m2
00:39 35.3 °F 21.2 °F 30.64 in Calm     56% 0.00 in 0 W/m2
00:44 35.2 °F 20.9 °F 30.64 in Calm     55.5% 0.00 in 0 W/m2
00:49 35.1 °F 20.6 °F 30.64 in Calm     55.1% 0.00 in 0 W/m2
00:54 35 °F 20.4 °F 30.64 in Calm     54.9% 0.00 in 0 W/m2
00:59 35 °F 20 °F 30.63 in Calm     54% 0.00 in 0 W/m2
01:04 34.9 °F 20.3 °F 30.63 in Calm     54.8% 0.00 in 0 W/m2
01:09 34.9 °F 20.9 °F 30.63 in Calm     56.1% 0.00 in 0 W/m2
01:14 34.8 °F 20.9 °F 30.64 in Calm     56.2% 0.00 in 0 W/m2
01:19 34.8 °F 21.1 °F 30.64 in Calm     57% 0.00 in 0 W/m2
01:24 34.8 °F 21.3 °F 30.64 in Calm     57.5% 0.00 in 0 W/m2
01:29 34.8 °F 21.8 °F 30.64 in Calm     58.7% 0.00 in 0 W/m2
01:34 34.7 °F 22.1 °F 30.64 in Calm     59.5% 0.00 in 0 W/m2
01:39 34.6 °F 22.2 °F 30.64 in Calm     60% 0.00 in 0 W/m2
01:44 34.5 °F 22.2 °F 30.64 in Calm     60.2% 0.00 in 0 W/m2
01:49 34.4 °F 22.3 °F 30.64 in Calm     61% 0.00 in 0 W/m2
01:54 34.3 °F 22.2 °F 30.64 in Calm     61% 0.00 in 0 W/m2
01:59 34.2 °F 22.1 °F 30.64 in Calm     61% 0.00 in 0 W/m2
02:04 34.1 °F 22.5 °F 30.64 in Calm     62.1% 0.00 in 0 W/m2
02:09 34 °F 22.9 °F 30.65 in Calm     63.5% 0.00 in 0 W/m2
02:14 33.8 °F 23.1 °F 30.64 in NNW 0.1 mph 2 mph 64.4% 0.00 in 0 W/m2
02:19 33.7 °F 23.2 °F 30.64 in Calm   2 mph 65% 0.00 in 0 W/m2
02:24 33.4 °F 23.1 °F 30.65 in Calm   2 mph 65.2% 0.00 in 0 W/m2
02:29 33.3 °F 23.3 °F 30.65 in Calm   2 mph 66.4% 0.00 in 0 W/m2
02:34 33.2 °F 23.1 °F 30.65 in Calm   2 mph 66.3% 0.00 in 0 W/m2
02:39 33 °F 23.3 °F 30.65 in Calm     67% 0.00 in 0 W/m2
02:44 32.9 °F 23.1 °F 30.65 in Calm     67% 0.00 in 0 W/m2
02:49 32.7 °F 23.1 °F 30.65 in Calm     67.3% 0.00 in 0 W/m2
02:54 32.6 °F 23.2 °F 30.65 in Calm     68% 0.00 in 0 W/m2
02:59 32.5 °F 23.3 °F 30.65 in Calm     68.3% 0.00 in 0 W/m2
03:04 32.4 °F 23 °F 30.65 in Calm     68% 0.00 in 0 W/m2
03:09 32.3 °F 22.9 °F 30.65 in Calm     68% 0.00 in 0 W/m2
03:14 32.2 °F 23.2 °F 30.65 in Calm     68.8% 0.00 in 0 W/m2
03:19 32.2 °F 23.2 °F 30.65 in Calm     69% 0.00 in 0 W/m2
03:24 32.1 °F 23.1 °F 30.65 in Calm     69% 0.00 in 0 W/m2
03:29 32 °F 23 °F 30.66 in Calm     69% 0.00 in 0 W/m2
03:34 31.9 °F 22.9 °F 30.66 in Calm     69% 0.00 in 0 W/m2
03:39 31.8 °F 22.6 °F 30.66 in Calm     68.4% 0.00 in 0 W/m2
03:44 31.8 °F 22.4 °F 30.66 in Calm     68% 0.00 in 0 W/m2
03:49 31.7 °F 22.8 °F 30.66 in Calm     69.2% 0.00 in 0 W/m2
03:54 31.7 °F 23.1 °F 30.66 in Calm     70% 0.00 in 0 W/m2
03:59 31.6 °F 23 °F 30.66 in Calm     70% 0.00 in 0 W/m2
04:00 31.5 °F 22.9 °F 30.65 in Calm     70% 0.00 in 0 W/m2
04:09 31.4 °F 22.7 °F 30.66 in Calm     70% 0.00 in 0 W/m2
04:14 31.3 °F 22.7 °F 30.66 in Calm     70% 0.00 in 0 W/m2
04:18 31.3 °F 22.7 °F 30.66 in Calm     70% 0.00 in 0 W/m2
04:24 31.3 °F 22.6 °F 30.66 in Calm     70% 0.00 in 0 W/m2
04:29 31.2 °F 22.6 °F 30.65 in Calm     70% 0.00 in 0 W/m2
04:34 31.1 °F 22.5 °F 30.66 in Calm     70% 0.00 in 0 W/m2
04:39 31 °F 22.4 °F 30.65 in Calm     70% 0.00 in 0 W/m2
04:44 31 °F 22.7 °F 30.66 in Calm     70.9% 0.00 in 0 W/m2
04:49 30.9 °F 22.7 °F 30.66 in Calm     71% 0.00 in 0 W/m2
04:54 30.8 °F 22.7 °F 30.65 in Calm     71.5% 0.00 in 0 W/m2
04:59 30.7 °F 22.8 °F 30.66 in Calm     72% 0.00 in 0 W/m2
05:04 30.7 °F 22.9 °F 30.65 in Calm     72.5% 0.00 in 0 W/m2
05:09 30.6 °F 23 °F 30.65 in Calm     73% 0.00 in 0 W/m2
05:14 30.6 °F 22.9 °F 30.65 in Calm     73% 0.00 in 0 W/m2
05:19 30.5 °F 22.9 °F 30.65 in Calm     73% 0.00 in 0 W/m2
05:24 30.4 °F 22.8 °F 30.65 in Calm     73% 0.00 in 0 W/m2
05:29 30.3 °F 22.7 °F 30.65 in Calm     73% 0.00 in 0 W/m2
05:34 30.2 °F 22.9 °F 30.66 in Calm     74% 0.00 in 0 W/m2
05:39 30.1 °F 22.8 °F 30.66 in Calm     74% 0.00 in 0 W/m2
05:44 30 °F 22.7 °F 30.66 in Calm     74% 0.00 in 0 W/m2
05:49 29.8 °F 22.8 °F 30.66 in Calm     74.7% 0.00 in 0 W/m2
05:54 29.7 °F 22.7 °F 30.65 in Calm     75% 0.00 in 0 W/m2
05:59 29.6 °F 22.6 °F 30.65 in Calm     75% 0.00 in 0 W/m2
06:04 29.4 °F 22.8 °F 30.65 in Calm     76% 0.00 in 0 W/m2
06:09 29.3 °F 22.8 °F 30.65 in NNW 2 mph 4 mph 76.2% 0.00 in 0 W/m2
06:14 29.3 °F 23 °F 30.65 in NNW 0.7 mph 4 mph 77% 0.00 in 0 W/m2
06:19 29.2 °F 23 °F 30.65 in NNW 0.8 mph 4 mph 77.2% 0.00 in 0 W/m2
06:24 29.2 °F 23.2 °F 30.65 in Calm   4 mph 78% 0.00 in 0 W/m2
06:29 29.2 °F 23.2 °F 30.64 in NNW 0.7 mph 4 mph 78% 0.00 in 0 W/m2
06:34 29.1 °F 23.2 °F 30.66 in NNW 1.3 mph 4 mph 78.5% 0.00 in 0 W/m2
06:39 29 °F 23.3 °F 30.66 in NNW 0.6 mph 4 mph 79% 0.00 in 0 W/m2
06:44 28.9 °F 23.1 °F 30.66 in NNW 0.4 mph 4 mph 78.5% 0.00 in 0 W/m2
06:49 28.9 °F 22.9 °F 30.66 in Calm   4 mph 78% 0.00 in 0 W/m2
06:54 28.8 °F 22.8 °F 30.66 in NNW 0.7 mph 4 mph 77.8% 0.00 in 0 W/m2
06:59 28.8 °F 22.8 °F 30.66 in NNW 0.2 mph 4 mph 78% 0.00 in 0 W/m2
07:04 28.9 °F 22.6 °F 30.66 in NNW 0.1 mph 4 mph 77.1% 0.00 in 5 W/m2
07:09 29 °F 22.7 °F 30.66 in Calm   1 mph 77% 0.00 in 7 W/m2
07:14 29.1 °F 22.8 °F 30.66 in Calm   1 mph 76.8% 0.00 in 9 W/m2
07:19 29.4 °F 22.7 °F 30.66 in Calm   1 mph 76% 0.00 in 11 W/m2
07:24 29.6 °F 23 °F 30.66 in Calm   1 mph 76% 0.00 in 14 W/m2
07:29 29.7 °F 22.9 °F 30.66 in Calm   1 mph 75.4% 0.00 in 18 W/m2
07:34 29.8 °F 22.9 °F 30.66 in Calm   1 mph 75% 0.00 in 19 W/m2
07:39 29.9 °F 23 °F 30.66 in Calm     75% 0.00 in 23 W/m2
07:44 30.1 °F 23.1 °F 30.66 in Calm     75% 0.00 in 35 W/m2
07:49 30.3 °F 23.3 °F 30.67 in Calm     75% 0.00 in 44 W/m2
07:54 30.6 °F 23.5 °F 30.66 in Calm     74.9% 0.00 in 42 W/m2
07:59 30.8 °F 23.5 °F 30.66 in Calm     74% 0.00 in 53 W/m2
08:00 31 °F 23.7 °F 30.66 in Calm     74% 0.00 in 53 W/m2
08:09 31.2 °F 23.6 °F 30.67 in Calm     73.1% 0.00 in 62 W/m2
08:14 31.2 °F 23.9 °F 30.66 in Calm     74% 0.00 in 86 W/m2
08:19 31.2 °F 23.9 °F 30.66 in Calm     74% 0.00 in 69 W/m2
08:24 31.4 °F 24.3 °F 30.66 in Calm     74.6% 0.00 in 107 W/m2
08:29 31.7 °F 24.6 °F 30.66 in Calm     74.8% 0.00 in 135 W/m2
08:34 32.1 °F 25.1 °F 30.65 in Calm     74.8% 0.00 in 118 W/m2
08:39 32.7 °F 25.3 °F 30.65 in Calm     74% 0.00 in 121 W/m2
08:44 33.1 °F 25.4 °F 30.65 in Calm     73% 0.00 in 132 W/m2
08:49 33.5 °F 25.3 °F 30.65 in Calm     71.5% 0.00 in 195 W/m2
08:54 33.9 °F 25.2 °F 30.65 in Calm     70.2% 0.00 in 162 W/m2
08:59 34.2 °F 25.2 °F 30.66 in Calm     69.2% 0.00 in 165 W/m2
09:04 34.6 °F 25.3 °F 30.66 in Calm     68.5% 0.00 in 104 W/m2
09:09 34.8 °F 25.3 °F 30.66 in Calm     68% 0.00 in 142 W/m2
09:14 35 °F 25.6 °F 30.66 in Calm     68% 0.00 in 156 W/m2
09:19 35.3 °F 25.7 °F 30.66 in Calm     67.7% 0.00 in 149 W/m2
09:24 35.6 °F 26.3 °F 30.66 in Calm     68.7% 0.00 in 130 W/m2
09:29 35.7 °F 25.8 °F 30.66 in Calm     67% 0.00 in 120 W/m2
09:34 35.7 °F 25.7 °F 30.65 in NNW 0.2 mph 2 mph 66.6% 0.00 in 113 W/m2
09:39 35.7 °F 26 °F 30.65 in Calm   2 mph 67.5% 0.00 in 113 W/m2
09:44 35.7 °F 26.2 °F 30.65 in Calm   2 mph 68% 0.00 in 120 W/m2
09:49 35.7 °F 26.3 °F 30.65 in Calm   2 mph 68.2% 0.00 in 125 W/m2
09:54 35.8 °F 26.3 °F 30.65 in Calm   2 mph 68% 0.00 in 141 W/m2
09:59 35.9 °F 26.8 °F 30.65 in Calm   2 mph 69% 0.00 in 135 W/m2
10:04 36.2 °F 27.3 °F 30.65 in Calm   2 mph 70% 0.00 in 165 W/m2
10:09 36.4 °F 27 °F 30.65 in Calm     68.4% 0.00 in 232 W/m2
10:14 36.7 °F 27.4 °F 30.64 in Calm     68.8% 0.00 in 232 W/m2
10:19 37 °F 27.2 °F 30.64 in Calm     67.2% 0.00 in 214 W/m2
10:24 37.3 °F 27.1 °F 30.64 in Calm     66.1% 0.00 in 255 W/m2
10:29 37.8 °F 27.8 °F 30.64 in Calm     67% 0.00 in 285 W/m2
10:34 38.2 °F 27.4 °F 30.63 in Calm     64.8% 0.00 in 276 W/m2
10:39 38.8 °F 27.5 °F 30.63 in Calm     63.5% 0.00 in 411 W/m2
10:44 39.5 °F 27.7 °F 30.63 in Calm   1 mph 62.3% 0.00 in 408 W/m2
10:49 40.2 °F 26.9 °F 30.64 in Calm   1 mph 58.8% 0.00 in 207 W/m2
10:54 40.7 °F 25.8 °F 30.62 in Calm   1 mph 55.1% 0.00 in 107 W/m2
10:59 40.9 °F 25.9 °F 30.62 in Calm   1 mph 54.8% 0.00 in 111 W/m2
11:04 40.9 °F 25.1 °F 30.61 in Calm   1 mph 53.2% 0.00 in 214 W/m2
11:09 40.8 °F 25.6 °F 30.61 in Calm     54.4% 0.00 in 172 W/m2
11:14 40.7 °F 24.6 °F 30.61 in Calm     52.4% 0.00 in 107 W/m2
11:19 40.5 °F 24.3 °F 30.61 in Calm     52% 0.00 in 121 W/m2
11:24 40.4 °F 23.8 °F 30.61 in Calm     51.1% 0.00 in 130 W/m2
11:29 40.2 °F 23.8 °F 30.61 in Calm     51.4% 0.00 in 197 W/m2
11:34 40.3 °F 23.8 °F 30.60 in NNW 0.1 mph 2 mph 51.3% 0.00 in 204 W/m2
11:39 40.4 °F 23.7 °F 30.60 in Calm   2 mph 51% 0.00 in 288 W/m2
11:44 40.4 °F 24.5 °F 30.60 in Calm   2 mph 52.5% 0.00 in 199 W/m2
11:49 40.7 °F 25.1 °F 30.60 in NNW 0.3 mph 2 mph 53.5% 0.00 in 199 W/m2
11:54 40.9 °F 25.2 °F 30.60 in NNW 0.1 mph 2 mph 53.3% 0.00 in 165 W/m2
11:59 41.1 °F 25.8 °F 30.60 in NNW 0.1 mph 2 mph 54.1% 0.00 in 146 W/m2
12:09 41.4 °F 26 °F 30.59 in Calm     54% 0.00 in 197 W/m2
12:14 41.4 °F 25.9 °F 30.58 in Calm     53.6% 0.00 in 234 W/m2
12:19 41.5 °F 25.9 °F 30.58 in Calm     53.5% 0.00 in 246 W/m2
12:24 41.6 °F 26.2 °F 30.58 in Calm     54% 0.00 in 183 W/m2
12:29 41.6 °F 26.3 °F 30.58 in Calm     54.3% 0.00 in 185 W/m2
12:34 41.6 °F 26.5 °F 30.57 in Calm     54.5% 0.00 in 195 W/m2
12:39 41.8 °F 26.8 °F 30.57 in Calm     55% 0.00 in 199 W/m2
12:44 42 °F 27.1 °F 30.57 in NNW 0.1 mph 1 mph 55.2% 0.00 in 278 W/m2
12:49 42.3 °F 27.6 °F 30.56 in Calm   1 mph 55.8% 0.00 in 265 W/m2
12:54 42.6 °F 27.8 °F 30.56 in Calm   1 mph 55.4% 0.00 in 144 W/m2
12:59 43 °F 28 °F 30.56 in NNW 0.2 mph 3 mph 55.2% 0.00 in 118 W/m2
13:04 43.3 °F 28.7 °F 30.56 in NNW 0.2 mph 3 mph 56% 0.00 in 345 W/m2
13:09 43.7 °F 29.1 °F 30.55 in NNW 0.2 mph 3 mph 56% 0.00 in 248 W/m2
13:14 44 °F 29.4 °F 30.55 in NNW 0.1 mph 3 mph 56% 0.00 in 165 W/m2
13:19 44.2 °F 29.6 °F 30.55 in NNW 0.3 mph 3 mph 56.2% 0.00 in 149 W/m2
13:24 44.2 °F 30.1 °F 30.55 in Calm   3 mph 57.3% 0.00 in 199 W/m2
13:29 44.3 °F 30.1 °F 30.54 in NNW 0.3 mph 3 mph 57.2% 0.00 in 199 W/m2
13:34 44.3 °F 30.5 °F 30.53 in NNW 0.2 mph 3 mph 58% 0.00 in 188 W/m2
13:39 44.3 °F 30.7 °F 30.52 in Calm   2 mph 58.6% 0.00 in 158 W/m2
13:44 44.4 °F 31 °F 30.52 in Calm   2 mph 59% 0.00 in 114 W/m2
13:49 44.5 °F 31.8 °F 30.52 in Calm   2 mph 60.7% 0.00 in 116 W/m2
13:54 44.6 °F 32.4 °F 30.51 in NNW 0.1 mph 2 mph 62% 0.00 in 107 W/m2
13:59 44.7 °F 32.8 °F 30.51 in NNW 0.3 mph 2 mph 62.9% 0.00 in 116 W/m2
14:04 44.7 °F 33.6 °F 30.51 in NW 0.1 mph 2 mph 64.8% 0.00 in 114 W/m2
14:09 44.8 °F 34.2 °F 30.50 in NW 0.6 mph 3 mph 66% 0.00 in 132 W/m2
14:14 45 °F 34.4 °F 30.50 in NW 0.7 mph 4 mph 66.1% 0.00 in 128 W/m2
14:19 45.2 °F 34.9 °F 30.50 in SSW 0.5 mph 5 mph 67% 0.00 in 127 W/m2
14:24 45.3 °F 35 °F 30.50 in Calm   5 mph 67% 0.00 in 102 W/m2
14:29 45.4 °F 35.1 °F 30.51 in SE 0.5 mph 5 mph 67% 0.00 in 93 W/m2
14:34 45.5 °F 35.2 °F 30.51 in SSE 1 mph 5 mph 67% 0.00 in 88 W/m2
14:39 45.6 °F 35.3 °F 30.51 in SSE 0.8 mph 5 mph 67% 0.00 in 84 W/m2
14:44 45.6 °F 35.3 °F 30.51 in SSE 0.1 mph 5 mph 67% 0.00 in 79 W/m2
14:49 45.7 °F 35.8 °F 30.52 in SSE 0.1 mph 5 mph 68% 0.00 in 74 W/m2
14:54 45.8 °F 35.8 °F 30.51 in SSE 0.2 mph 5 mph 68% 0.00 in 63 W/m2
14:59 45.9 °F 35.9 °F 30.51 in Calm   5 mph 68% 0.00 in 56 W/m2
15:04 45.9 °F 36 °F 30.51 in Calm   5 mph 68% 0.00 in 56 W/m2
15:09 46 °F 36.1 °F 30.50 in Calm   1 mph 68% 0.00 in 49 W/m2
15:14 46 °F 36.1 °F 30.50 in Calm   1 mph 68% 0.00 in 39 W/m2
15:19 46.1 °F 36.1 °F 30.50 in Calm   1 mph 68% 0.00 in 30 W/m2
15:24 46.1 °F 36.1 °F 30.50 in Calm   1 mph 68% 0.00 in 19 W/m2
15:29 46.1 °F 36.1 °F 30.50 in Calm   1 mph 68% 0.00 in 14 W/m2
15:34 46.1 °F 36.4 °F 30.50 in Calm   1 mph 68.8% 0.00 in 14 W/m2
15:39 46.1 °F 36.5 °F 30.50 in Calm     69% 0.00 in 12 W/m2
15:44 46.2 °F 36.6 °F 30.50 in Calm   1 mph 69% 0.00 in 11 W/m2
15:49 46.2 °F 36.6 °F 30.49 in SSE 0.3 mph 1 mph 69% 0.00 in 11 W/m2
15:54 46.3 °F 36.7 °F 30.49 in Calm   1 mph 69% 0.00 in 7 W/m2
15:59 46.3 °F 36.7 °F 30.49 in Calm   1 mph 69% 0.00 in 7 W/m2
16:09 46.3 °F 36.7 °F 30.50 in Calm     69% 0.00 in 0 W/m2
16:14 46.2 °F 36.8 °F 30.49 in Calm     69.6% 0.00 in 0 W/m2
16:19 46.1 °F 36.9 °F 30.49 in Calm     70% 0.00 in 0 W/m2
16:24 46 °F 36.8 °F 30.49 in Calm     70% 0.00 in 0 W/m2
16:29 46 °F 36.7 °F 30.48 in Calm     70% 0.00 in 0 W/m2
16:34 45.9 °F 36.7 °F 30.48 in Calm     70.1% 0.00 in 0 W/m2
16:39 45.8 °F 36.9 °F 30.47 in Calm     71% 0.00 in 0 W/m2
16:44 45.7 °F 37 °F 30.48 in Calm     71.5% 0.00 in 0 W/m2
16:49 45.6 °F 37.4 °F 30.48 in Calm     72.9% 0.00 in 0 W/m2
16:54 45.5 °F 37.4 °F 30.47 in Calm     73% 0.00 in 0 W/m2
16:59 45.4 °F 37.5 °F 30.47 in Calm     73.8% 0.00 in 0 W/m2
17:04 45.3 °F 37.5 °F 30.47 in Calm     74% 0.00 in 0 W/m2
17:09 45.2 °F 37.6 °F 30.47 in Calm     74.6% 0.00 in 0 W/m2
17:14 45.1 °F 38.1 °F 30.47 in Calm     76.2% 0.00 in 0 W/m2
17:19 45 °F 38.4 °F 30.46 in Calm     77.3% 0.00 in 0 W/m2
17:24 44.8 °F 38.6 °F 30.46 in Calm     78.5% 0.01 in 0 W/m2
17:29 44.6 °F 38.6 °F 30.46 in Calm     79.3% 0.01 in 0 W/m2
17:34 44.4 °F 38.8 °F 30.47 in Calm     80.6% 0.02 in 0 W/m2
17:39 44.2 °F 38.8 °F 30.46 in Calm     81.3% 0.02 in 0 W/m2
17:44 43.9 °F 38.8 °F 30.46 in Calm     82% 0.03 in 0 W/m2
17:49 43.7 °F 38.8 °F 30.47 in SSE 0.1 mph 2 mph 82.9% 0.04 in 0 W/m2
17:54 43.5 °F 39 °F 30.46 in Calm   2 mph 83.9% 0.05 in 0 W/m2
17:59 43.2 °F 39 °F 30.46 in Calm   2 mph 84.9% 0.05 in 0 W/m2
18:04 43 °F 39 °F 30.46 in Calm   2 mph 85.6% 0.06 in 0 W/m2
18:09 42.8 °F 39.1 °F 30.45 in Calm     86.7% 0.06 in 0 W/m2
18:14 42.7 °F 39.1 °F 30.45 in Calm     87% 0.07 in 0 W/m2
18:19 42.6 °F 39.2 °F 30.45 in Calm     87.6% 0.08 in 0 W/m2
18:24 42.5 °F 39.2 °F 30.44 in Calm     88% 0.08 in 0 W/m2
18:29 42.4 °F 39.1 °F 30.44 in Calm     88.1% 0.09 in 0 W/m2
18:34 42.3 °F 39.3 °F 30.43 in Calm     89% 0.09 in 0 W/m2
18:39 42.1 °F 39.1 °F 30.43 in Calm     89% 0.08 in 0 W/m2
18:44 42.1 °F 39.2 °F 30.43 in Calm     89.5% 0.08 in 0 W/m2
18:49 42.1 °F 39.3 °F 30.43 in Calm     90% 0.08 in 0 W/m2
18:54 42 °F 39.3 °F 30.43 in Calm     90% 0.08 in 0 W/m2
18:59 42 °F 39.3 °F 30.42 in Calm     90% 0.09 in 0 W/m2
19:04 42.1 °F 39.5 °F 30.42 in Calm     90.5% 0.09 in 0 W/m2
19:09 42.1 °F 39.7 °F 30.42 in Calm     91% 0.05 in 0 W/m2
19:14 42.1 °F 39.7 °F 30.41 in Calm     91% 0.05 in 0 W/m2
19:19 42 °F 39.6 °F 30.41 in Calm     91% 0.05 in 0 W/m2
19:24 42 °F 39.6 °F 30.40 in Calm     91% 0.05 in 0 W/m2
19:29 42.1 °F 39.7 °F 30.40 in Calm     91% 0.05 in 0 W/m2
19:34 42.1 °F 39.7 °F 30.40 in Calm     91.2% 0.05 in 0 W/m2
19:39 42 °F 39.9 °F 30.39 in Calm     92% 0.02 in 0 W/m2
19:44 42 °F 39.9 °F 30.39 in Calm     92% 0.02 in 0 W/m2
19:49 42 °F 39.8 °F 30.38 in Calm     92% 0.02 in 0 W/m2
19:54 42 °F 39.8 °F 30.38 in Calm     92% 0.02 in 0 W/m2
19:59 41.9 °F 39.8 °F 30.37 in Calm     92% 0.02 in 0 W/m2
20:00 42 °F 39.8 °F 30.37 in Calm     92% 0.02 in 0 W/m2
20:09 42.3 °F 40.4 °F 30.37 in Calm     93% 0.01 in 0 W/m2
20:14 42.4 °F 40.5 °F 30.37 in Calm     93% 0.01 in 0 W/m2
20:19 42.5 °F 40.6 °F 30.36 in Calm     93% 0.01 in 0 W/m2
20:24 42.6 °F 40.7 °F 30.36 in Calm     93% 0.01 in 0 W/m2
20:29 42.7 °F 40.8 °F 30.35 in Calm     93% 0.01 in 0 W/m2
20:34 42.7 °F 40.8 °F 30.35 in Calm     93% 0.01 in 0 W/m2
20:39 42.8 °F 40.9 °F 30.35 in Calm     93% 0.01 in 0 W/m2
20:44 42.8 °F 40.9 °F 30.35 in Calm     93% 0.01 in 0 W/m2
20:49 42.8 °F 40.9 °F 30.34 in Calm     93% 0.01 in 0 W/m2
20:54 42.8 °F 41 °F 30.34 in Calm     93% 0.01 in 0 W/m2
20:59 43 °F 41.2 °F 30.33 in Calm     93.4% 0.01 in 0 W/m2
21:04 43.1 °F 41.4 °F 30.33 in Calm     93.6% 0.01 in 0 W/m2
21:09 43.2 °F 41.6 °F 30.33 in Calm     94% 0.00 in 0 W/m2
21:14 43.3 °F 41.7 °F 30.32 in Calm     94% 0.00 in 0 W/m2
21:19 43.4 °F 41.8 °F 30.32 in Calm     94% 0.00 in 0 W/m2
21:24 43.4 °F 41.8 °F 30.31 in Calm     94% 0.00 in 0 W/m2
21:29 43.4 °F 41.8 °F 30.31 in Calm     94% 0.00 in 0 W/m2
21:34 43.4 °F 41.8 °F 30.31 in Calm     94% 0.00 in 0 W/m2
21:39 43.4 °F 41.8 °F 30.31 in Calm     94% 0.00 in 0 W/m2
21:44 43.4 °F 41.8 °F 30.30 in Calm   2 mph 94% 0.00 in 0 W/m2
21:49 43.4 °F 41.8 °F 30.30 in Calm   2 mph 94% 0.00 in 0 W/m2
21:54 43.4 °F 41.8 °F 30.30 in Calm   2 mph 94% 0.00 in 0 W/m2
21:59 43.4 °F 41.8 °F 30.30 in Calm   2 mph 94% 0.00 in 0 W/m2
22:04 43.4 °F 41.8 °F 30.29 in Calm   2 mph 94% 0.00 in 0 W/m2
22:09 43.3 °F 41.7 °F 30.28 in Calm     94% 0.00 in 0 W/m2
22:14 43.2 °F 41.6 °F 30.28 in Calm     94% 0.00 in 0 W/m2
22:19 43.1 °F 41.5 °F 30.27 in Calm     94% 0.00 in 0 W/m2
22:24 43.1 °F 41.5 °F 30.27 in Calm     94% 0.00 in 0 W/m2
22:29 43.2 °F 41.5 °F 30.26 in Calm     94% 0.00 in 0 W/m2
22:34 43.2 °F 41.6 °F 30.26 in Calm     94% 0.00 in 0 W/m2
22:39 43.2 °F 41.6 °F 30.26 in Calm     94% 0.00 in 0 W/m2
22:44 43.3 °F 41.7 °F 30.26 in Calm     94% 0.00 in 0 W/m2
22:49 43.3 °F 41.7 °F 30.25 in Calm     94% 0.01 in 0 W/m2
22:54 43.3 °F 41.7 °F 30.25 in Calm     94% 0.01 in 0 W/m2
22:59 43.3 °F 41.7 °F 30.25 in Calm     94% 0.01 in 0 W/m2
23:08 43.4 °F 41.8 °F 30.24 in Calm     94% 0.01 in 0 W/m2
Hartford County Weather
Compliments of Weather Underground - 4 mb